Time;durP1;ratioP1;P1;durP2;ratioP2;P2;SDS_P1;SDS_P2;PMS_P1;PMS_P2;Temp;Humidity;BMP_temperature;BMP_pressure;BME280_temperature;BME280_humidity;BME280_pressure;Samples;Min_cycle;Max_cycle;Signal;HPM_P1;HPM_P2
2022/03/15 00:00:20;;;;;;;9.25;4.53;;;5.80;88.60;;;;;;4981611;28;20494;-88
2022/03/15 00:02:46;;;;;;;7.88;4.20;;;5.70;88.40;;;;;;4977342;28;20038;-87
2022/03/15 00:05:12;;;;;;;7.63;3.95;;;5.70;88.50;;;;;;4962666;28;20027;-89
2022/03/15 00:07:37;;;;;;;7.45;4.20;;;5.70;88.80;;;;;;4963099;28;20023;-87
2022/03/15 00:10:04;;;;;;;9.45;4.20;;;5.70;89.40;;;;;;4962991;28;20026;-88
2022/03/15 00:12:30;;;;;;;8.50;4.45;;;5.70;89.10;;;;;;4963101;28;20031;-86
2022/03/15 00:14:56;;;;;;;9.98;4.55;;;5.70;89.30;;;;;;4963197;28;20044;-87
2022/03/15 00:17:23;;;;;;;6.10;4.35;;;5.70;89.60;;;;;;4963331;28;20030;-88
2022/03/15 00:19:49;;;;;;;4.75;3.28;;;5.70;89.90;;;;;;4963380;28;20132;-87
2022/03/15 00:22:15;;;;;;;7.60;4.35;;;5.70;89.90;;;;;;4980519;28;20075;-88
2022/03/15 00:24:42;;;;;;;14.77;7.13;;;5.70;90.00;;;;;;4982505;28;20030;-87
2022/03/15 00:27:10;;;;;;;27.23;11.88;;;5.80;90.20;;;;;;4982322;28;20030;-88
2022/03/15 00:29:36;;;;;;;15.13;7.35;;;5.80;90.10;;;;;;4968282;28;20027;-88
2022/03/15 00:32:01;;;;;;;10.02;5.22;;;5.80;90.00;;;;;;4963839;28;20074;-88
2022/03/15 00:34:27;;;;;;;17.83;6.18;;;5.70;90.00;;;;;;4963835;28;20059;-87
2022/03/15 00:36:53;;;;;;;10.63;5.18;;;5.70;90.20;;;;;;4964763;28;20027;-87
2022/03/15 00:39:19;;;;;;;7.05;4.00;;;5.70;90.40;;;;;;4964007;28;20023;-87
2022/03/15 00:41:44;;;;;;;12.57;4.78;;;5.80;90.50;;;;;;4975964;28;20042;-87
2022/03/15 00:44:10;;;;;;;6.72;4.35;;;5.80;90.50;;;;;;4989360;28;20094;-88
2022/03/15 00:46:35;;;;;;;6.22;4.13;;;5.80;90.40;;;;;;4989992;28;20510;-89
2022/03/15 00:49:02;;;;;;;8.85;4.68;;;5.70;90.20;;;;;;4988078;28;20589;-87
2022/03/15 00:51:29;;;;;;;7.47;4.50;;;5.70;90.20;;;;;;4985318;28;20033;-88
2022/03/15 00:53:54;;;;;;;6.43;4.60;;;5.50;90.20;;;;;;4985330;28;20064;-88
2022/03/15 00:56:20;;;;;;;8.68;5.03;;;5.40;90.30;;;;;;4984680;28;20026;-88
2022/03/15 00:58:45;;;;;;;14.55;6.05;;;5.30;90.50;;;;;;4985726;28;20490;-87
2022/03/15 01:01:11;;;;;;;8.27;4.60;;;5.40;90.90;;;;;;4975702;28;20019;-89
2022/03/15 01:03:37;;;;;;;8.32;4.43;;;5.30;91.00;;;;;;4964797;28;20065;-88
2022/03/15 01:06:02;;;;;;;7.85;4.72;;;5.30;91.00;;;;;;4965897;28;20050;-89
2022/03/15 01:08:28;;;;;;;8.02;4.03;;;5.40;91.10;;;;;;4965445;28;20026;-89
2022/03/15 01:10:54;;;;;;;10.13;5.05;;;5.40;91.20;;;;;;4965808;28;20130;-88
2022/03/15 01:13:20;;;;;;;9.45;5.00;;;5.40;91.20;;;;;;4977853;28;20535;-88
2022/03/15 01:15:45;;;;;;;10.60;5.18;;;5.40;91.10;;;;;;4984685;28;20029;-88
2022/03/15 01:18:12;;;;;;;10.45;4.80;;;5.40;91.20;;;;;;5035566;23;20048;-89
2022/03/15 01:20:40;;;;;;;9.40;5.25;;;5.40;91.50;;;;;;4946000;28;20083;-89
2022/03/15 01:23:06;;;;;;;11.40;5.35;;;5.50;91.50;;;;;;4916273;29;20028;-89
2022/03/15 01:25:32;;;;;;;12.38;5.00;;;5.50;91.40;;;;;;4917795;29;20111;-89
2022/03/15 01:27:57;;;;;;;7.47;5.00;;;5.40;91.40;;;;;;4949532;28;20036;-89
2022/03/15 01:30:23;;;;;;;7.22;4.63;;;5.40;91.30;;;;;;4918401;29;20040;-89
2022/03/15 01:32:49;;;;;;;7.65;5.43;;;5.30;91.10;;;;;;4917331;29;20043;-89
2022/03/15 01:35:14;;;;;;;10.35;5.38;;;5.20;91.10;;;;;;4947644;28;20111;-89
2022/03/15 01:37:40;;;;;;;11.07;5.32;;;5.10;91.30;;;;;;4917198;29;21192;-89
2022/03/15 01:40:06;;;;;;;12.55;5.13;;;5.10;91.30;;;;;;4917572;29;20032;-89
2022/03/15 01:42:32;;;;;;;11.52;5.32;;;5.00;91.70;;;;;;4924762;29;20035;-89
2022/03/15 01:45:03;;;;;;;8.00;4.95;;;5.10;92.00;;;;;;4928113;29;20114;-89
2022/03/15 01:47:28;;;;;;;7.22;4.57;;;5.10;92.10;;;;;;4924067;29;20040;-89
2022/03/15 01:49:54;;;;;;;6.65;4.40;;;5.10;92.10;;;;;;4935938;29;20157;-89
2022/03/15 01:52:19;;;;;;;8.18;4.82;;;5.20;92.10;;;;;;4917003;29;20056;-89
2022/03/15 01:54:46;;;;;;;8.32;4.40;;;5.20;92.00;;;;;;4917105;29;20063;-89
2022/03/15 01:57:12;;;;;;;10.63;4.63;;;5.20;92.20;;;;;;4917993;29;20083;-89
2022/03/15 01:59:39;;;;;;;11.60;4.57;;;5.20;92.50;;;;;;4918105;29;20095;-89
2022/03/15 02:02:05;;;;;;;7.88;4.53;;;5.30;92.50;;;;;;4919393;29;20080;-89
2022/03/15 02:04:32;;;;;;;6.90;4.13;;;5.30;92.70;;;;;;4916864;29;20404;-91
2022/03/15 02:07:13;;;;;;;9.05;4.68;;;5.30;92.50;;;;;;4919038;29;20031;-89
2022/03/15 02:09:40;;;;;;;7.82;4.25;;;5.30;92.60;;;;;;4925988;29;20024;-90
2022/03/15 02:12:06;;;;;;;4.82;3.90;;;5.30;92.40;;;;;;4919371;29;20020;-89
2022/03/15 02:14:32;;;;;;;10.48;4.07;;;5.20;92.40;;;;;;4917686;29;20115;-89
2022/03/15 02:16:58;;;;;;;7.03;4.75;;;5.20;92.60;;;;;;4919087;29;20024;-90
2022/03/15 02:19:24;;;;;;;9.65;4.97;;;5.20;92.90;;;;;;4935913;29;20019;-89
2022/03/15 02:21:50;;;;;;;7.88;4.53;;;5.20;92.90;;;;;;4919723;29;20067;-89
2022/03/15 02:24:16;;;;;;;7.18;4.65;;;5.30;93.00;;;;;;4916542;29;20028;-89
2022/03/15 02:26:42;;;;;;;6.65;4.53;;;5.30;93.00;;;;;;4912157;29;20028;-89
2022/03/15 02:29:08;;;;;;;8.10;4.80;;;5.30;93.00;;;;;;4918115;29;20070;-89
2022/03/15 02:31:33;;;;;;;6.32;4.28;;;5.30;93.00;;;;;;4949039;28;20031;-90
2022/03/15 02:33:59;;;;;;;6.47;4.75;;;5.30;93.10;;;;;;4916878;29;20035;-89
2022/03/15 02:36:24;;;;;;;6.32;4.25;;;5.30;93.10;;;;;;4917719;29;20031;-90
2022/03/15 02:38:50;;;;;;;6.13;4.65;;;5.40;93.10;;;;;;4917326;29;20012;-89
2022/03/15 02:41:16;;;;;;;8.55;4.32;;;5.40;93.20;;;;;;4922567;29;20020;-87
2022/03/15 02:43:44;;;;;;;10.25;4.68;;;5.40;93.30;;;;;;4939113;29;20107;-88
2022/03/15 02:46:10;;;;;;;8.27;4.80;;;5.40;93.20;;;;;;4938000;29;20032;-89
2022/03/15 02:48:36;;;;;;;9.10;4.57;;;5.40;93.10;;;;;;4948857;29;20076;-89
2022/03/15 02:51:06;;;;;;;7.32;4.93;;;5.40;93.10;;;;;;4901559;29;20450;-90
2022/03/15 02:53:32;;;;;;;9.65;4.35;;;5.30;93.20;;;;;;4942541;28;20033;-90
2022/03/15 02:55:58;;;;;;;13.23;7.65;;;5.30;93.30;;;;;;4928204;28;20028;-89
2022/03/15 02:58:24;;;;;;;10.13;5.40;;;5.20;93.20;;;;;;4896471;29;20033;-89
2022/03/15 03:00:49;;;;;;;11.00;4.95;;;5.20;93.10;;;;;;4928957;28;20092;-90
2022/03/15 03:03:15;;;;;;;9.98;4.93;;;5.10;93.30;;;;;;4933758;28;20144;-89
2022/03/15 03:05:41;;;;;;;8.60;4.80;;;5.00;93.70;;;;;;4913837;29;20035;-88
2022/03/15 03:08:07;;;;;;;11.15;5.18;;;5.10;94.00;;;;;;4938293;29;20121;-89
2022/03/15 03:10:33;;;;;;;8.00;4.57;;;5.20;94.20;;;;;;4937151;29;20012;-88
2022/03/15 03:12:59;;;;;;;9.45;5.65;;;5.30;94.20;;;;;;4938338;29;20032;-88
2022/03/15 03:15:26;;;;;;;9.05;4.35;;;5.30;94.10;;;;;;4938329;29;20020;-89
2022/03/15 03:17:52;;;;;;;11.75;4.63;;;5.30;94.10;;;;;;4944712;29;20139;-89
2022/03/15 03:20:19;;;;;;;10.77;4.82;;;5.40;94.20;;;;;;4951180;29;20032;-88
2022/03/15 03:22:50;;;;;;;8.27;5.20;;;5.40;94.20;;;;;;4933822;29;20028;-88
2022/03/15 03:25:17;;;;;;;8.75;6.28;;;5.40;94.30;;;;;;4936058;29;20100;-89
2022/03/15 03:27:42;;;;;;;11.15;5.75;;;5.40;94.20;;;;;;4938517;29;20048;-89
2022/03/15 03:30:09;;;;;;;10.05;4.93;;;5.40;94.20;;;;;;4929867;29;20028;-90
2022/03/15 03:32:35;;;;;;;8.52;5.13;;;5.40;94.10;;;;;;4916601;29;20036;-89
2022/03/15 03:35:04;;;;;;;10.63;6.00;;;5.40;94.20;;;;;;4916521;29;20024;-90
2022/03/15 03:37:30;;;;;;;8.20;6.30;;;5.40;94.30;;;;;;4921759;29;20028;-89
2022/03/15 03:39:56;;;;;;;7.30;5.05;;;5.40;94.40;;;;;;4915752;29;20032;-90
2022/03/15 03:42:21;;;;;;;6.15;4.13;;;5.40;94.50;;;;;;4902945;29;20024;-89
2022/03/15 03:44:47;;;;;;;9.00;4.75;;;5.50;94.50;;;;;;4916198;29;20040;-90
2022/03/15 03:47:13;;;;;;;8.07;4.60;;;5.40;94.40;;;;;;4915848;29;20068;-89
2022/03/15 03:49:39;;;;;;;10.23;4.60;;;5.50;94.30;;;;;;4926199;29;20028;-89
2022/03/15 03:52:06;;;;;;;8.75;4.60;;;5.40;94.30;;;;;;4912532;29;20036;-89
2022/03/15 03:54:33;;;;;;;6.97;4.75;;;5.40;94.10;;;;;;4914256;29;20027;-90
2022/03/15 03:56:58;;;;;;;7.13;4.47;;;5.30;94.10;;;;;;4915255;29;20036;-89
2022/03/15 03:59:24;;;;;;;10.40;5.00;;;5.20;94.10;;;;;;4914630;29;20038;-90
2022/03/15 04:01:50;;;;;;;6.30;4.38;;;5.20;94.40;;;;;;4915322;29;20020;-89
2022/03/15 04:04:16;;;;;;;9.27;5.05;;;5.20;94.70;;;;;;4914905;29;20032;-89
2022/03/15 04:06:41;;;;;;;7.28;4.60;;;5.20;94.90;;;;;;4915192;29;20040;-89
2022/03/15 04:09:11;;;;;;;7.40;4.45;;;5.20;94.90;;;;;;4915378;29;20072;-89
2022/03/15 04:11:40;;;;;;;9.05;4.38;;;5.20;95.00;;;;;;4914688;29;20035;-88
2022/03/15 04:14:07;;;;;;;6.82;4.45;;;5.30;95.00;;;;;;4914987;29;20060;-89
2022/03/15 04:16:33;;;;;;;8.98;4.68;;;5.30;94.60;;;;;;4915734;29;20036;-90
2022/03/15 04:18:59;;;;;;;5.90;4.60;;;5.20;94.50;;;;;;4934043;29;20511;-89
2022/03/15 04:21:25;;;;;;;8.07;4.78;;;5.10;94.70;;;;;;4918223;29;20060;-89
2022/03/15 04:23:55;;;;;;;10.13;4.93;;;5.10;95.00;;;;;;4913418;29;20052;-90
2022/03/15 04:26:22;;;;;;;8.10;4.88;;;5.20;95.60;;;;;;4919664;29;20032;-89
2022/03/15 04:28:47;;;;;;;7.63;4.72;;;5.20;95.20;;;;;;4919257;29;20453;-90
2022/03/15 04:31:14;;;;;;;6.38;4.30;;;5.20;95.30;;;;;;4918134;29;20039;-89
2022/03/15 04:33:40;;;;;;;7.90;4.15;;;5.20;95.40;;;;;;4917316;29;20024;-89
2022/03/15 04:36:06;;;;;;;6.60;4.57;;;5.30;95.40;;;;;;4917952;29;20036;-89
2022/03/15 04:38:32;;;;;;;5.18;4.38;;;5.30;95.30;;;;;;4918417;29;20088;-89
2022/03/15 04:40:59;;;;;;;10.35;4.57;;;5.30;95.30;;;;;;4918823;29;20148;-89
2022/03/15 04:43:25;;;;;;;7.07;4.45;;;5.30;95.40;;;;;;4917459;29;20052;-89
2022/03/15 04:45:50;;;;;;;5.22;4.18;;;5.40;95.40;;;;;;4919644;29;20040;-89
2022/03/15 04:48:20;;;;;;;7.40;4.57;;;5.40;95.50;;;;;;4924405;29;20091;-88
2022/03/15 04:50:46;;;;;;;10.93;4.78;;;5.40;95.50;;;;;;4926669;29;20100;-89
2022/03/15 04:53:12;;;;;;;6.40;4.78;;;5.40;95.50;;;;;;4917894;29;20492;-89
2022/03/15 04:55:39;;;;;;;8.75;4.68;;;5.30;95.50;;;;;;4909179;29;20029;-90
2022/03/15 04:58:04;;;;;;;8.82;4.40;;;5.30;95.40;;;;;;4926175;29;20034;-89
2022/03/15 05:00:30;;;;;;;5.40;4.20;;;5.30;95.40;;;;;;4932411;29;20064;-89
2022/03/15 05:02:55;;;;;;;9.68;4.40;;;5.20;95.40;;;;;;4920197;29;20036;-89
2022/03/15 05:05:21;;;;;;;6.47;4.05;;;5.10;95.30;;;;;;4918297;29;20091;-88
2022/03/15 05:07:47;;;;;;;6.00;4.07;;;5.10;95.40;;;;;;4919398;29;20036;-90
2022/03/15 05:12:57;;;;;;;8.73;4.63;;;5.00;95.50;;;;;;4922029;29;20039;-89
2022/03/15 05:15:23;;;;;;;7.00;4.82;;;4.90;95.60;;;;;;4920387;29;20494;-89
2022/03/15 05:17:49;;;;;;;10.48;4.88;;;4.90;96.00;;;;;;4917143;29;20028;-90
2022/03/15 05:20:14;;;;;;;6.78;4.82;;;4.90;96.20;;;;;;4928407;29;20027;-89
2022/03/15 05:22:40;;;;;;;9.27;5.03;;;5.00;96.30;;;;;;4918433;29;20051;-89
2022/03/15 05:25:06;;;;;;;10.32;4.70;;;5.10;96.30;;;;;;4917989;29;20028;-89
2022/03/15 05:27:33;;;;;;;11.80;5.15;;;5.10;96.30;;;;;;4916945;29;20199;-88
2022/03/15 05:30:02;;;;;;;8.07;4.70;;;5.10;96.30;;;;;;4927653;29;20023;-89
2022/03/15 05:32:28;;;;;;;10.88;5.32;;;5.20;96.30;;;;;;4925113;29;20040;-89
2022/03/15 05:34:54;;;;;;;9.00;5.38;;;5.30;96.30;;;;;;4919306;29;20032;-88
2022/03/15 05:37:20;;;;;;;11.13;5.50;;;5.30;96.30;;;;;;4917977;29;20024;-88
2022/03/15 05:39:45;;;;;;;11.32;5.13;;;5.30;96.20;;;;;;4906514;29;20029;-89
2022/03/15 05:42:14;;;;;;;8.63;5.28;;;5.30;96.20;;;;;;4907375;29;20051;-89
2022/03/15 05:44:40;;;;;;;10.68;5.32;;;5.30;96.10;;;;;;4931152;29;20032;-88
2022/03/15 05:47:07;;;;;;;9.98;4.95;;;5.20;96.00;;;;;;4917664;29;20273;-89
2022/03/15 05:49:32;;;;;;;12.50;5.22;;;5.20;96.20;;;;;;4919776;28;20039;-88
2022/03/15 05:51:58;;;;;;;8.73;5.40;;;5.20;96.30;;;;;;4917552;29;20032;-88
2022/03/15 05:54:23;;;;;;;15.13;5.10;;;5.10;96.20;;;;;;4904761;29;20481;-90
2022/03/15 05:56:49;;;;;;;12.25;5.88;;;5.10;96.40;;;;;;4910483;29;20032;-89
2022/03/15 05:59:15;;;;;;;10.27;5.30;;;5.10;96.60;;;;;;4918651;29;20088;-89
2022/03/15 06:01:41;;;;;;;11.13;5.20;;;5.10;96.70;;;;;;4920537;29;20035;-89
2022/03/15 06:04:07;;;;;;;7.78;4.93;;;5.10;96.60;;;;;;4919222;29;20036;-90
2022/03/15 06:06:34;;;;;;;11.00;6.13;;;5.10;96.60;;;;;;4923090;29;20032;-90
2022/03/15 06:09:00;;;;;;;8.60;4.53;;;5.10;96.70;;;;;;4932559;29;20034;-90
2022/03/15 06:11:25;;;;;;;9.40;5.40;;;5.10;96.80;;;;;;4918981;29;20041;-89
2022/03/15 06:13:51;;;;;;;6.97;5.25;;;5.10;96.80;;;;;;4925703;29;20027;-89
2022/03/15 06:16:17;;;;;;;9.32;5.20;;;5.10;96.70;;;;;;4936206;29;20429;-89
2022/03/15 06:18:42;;;;;;;6.47;4.72;;;5.10;96.80;;;;;;4937255;29;20034;-89
2022/03/15 06:21:09;;;;;;;8.30;5.32;;;5.20;96.90;;;;;;4921623;29;20031;-91
2022/03/15 06:23:34;;;;;;;9.90;5.10;;;5.20;96.90;;;;;;4918120;29;20032;-89
2022/03/15 06:26:00;;;;;;;12.23;5.82;;;5.20;96.90;;;;;;4926914;29;20060;-89
2022/03/15 06:28:25;;;;;;;9.07;5.15;;;5.20;97.00;;;;;;4921436;29;20082;-92
2022/03/15 06:30:51;;;;;;;9.73;5.40;;;5.30;96.90;;;;;;4917576;29;20034;-91
2022/03/15 06:33:17;;;;;;;9.65;5.60;;;5.30;96.90;;;;;;4916906;29;20406;-89
2022/03/15 06:35:42;;;;;;;7.50;5.22;;;5.30;96.90;;;;;;4917876;29;20025;-89
2022/03/15 06:38:12;;;;;;;9.48;5.25;;;5.40;97.00;;;;;;4914431;29;20028;-89
2022/03/15 06:40:40;;;;;;;7.85;4.93;;;5.40;96.90;;;;;;4917016;29;20485;-89
2022/03/15 06:43:06;;;;;;;8.10;5.18;;;5.40;96.90;;;;;;4914350;29;20056;-89
2022/03/15 06:45:32;;;;;;;10.88;5.22;;;5.50;97.00;;;;;;4915988;29;20054;-89
2022/03/15 06:47:58;;;;;;;10.13;5.72;;;5.50;97.10;;;;;;4923535;29;20543;-89
2022/03/15 06:50:23;;;;;;;9.48;5.45;;;5.60;97.20;;;;;;4951477;29;20031;-90
2022/03/15 06:52:50;;;;;;;8.98;5.35;;;5.60;97.20;;;;;;4926905;29;20040;-89
2022/03/15 06:55:16;;;;;;;8.27;5.35;;;5.70;97.20;;;;;;4931200;29;20028;-89
2022/03/15 06:57:42;;;;;;;8.55;5.88;;;5.80;97.10;;;;;;4938330;29;20044;-88
2022/03/15 07:00:10;;;;;;;8.93;5.40;;;5.80;97.10;;;;;;4937680;29;20024;-87
2022/03/15 07:02:36;;;;;;;10.00;6.10;;;5.90;97.20;;;;;;4963337;28;20020;-89
2022/03/15 07:05:02;;;;;;;13.85;6.53;;;6.00;97.10;;;;;;4922093;29;20492;-89
2022/03/15 07:07:28;;;;;;;10.35;5.45;;;6.10;97.20;;;;;;4923015;29;20146;-89
2022/03/15 07:09:54;;;;;;;14.27;5.35;;;6.20;97.10;;;;;;4911328;28;20060;-90
2022/03/15 07:12:20;;;;;;;12.07;5.85;;;6.30;97.00;;;;;;4922970;29;20028;-89
2022/03/15 07:14:47;;;;;;;11.35;5.30;;;6.30;96.90;;;;;;4905286;29;20025;-91
2022/03/15 07:17:13;;;;;;;8.52;5.32;;;6.40;96.90;;;;;;4935350;23;20032;-84
2022/03/15 07:19:39;;;;;;;14.18;6.55;;;6.40;96.80;;;;;;4961768;28;20121;-87
2022/03/15 07:22:07;;;;;;;10.57;5.60;;;6.40;96.80;;;;;;4979003;28;20097;-87
2022/03/15 07:24:35;;;;;;;14.75;6.35;;;6.40;96.80;;;;;;4980935;28;20065;-88
2022/03/15 07:27:01;;;;;;;10.23;5.50;;;6.40;97.00;;;;;;4985785;28;20027;-86
2022/03/15 07:29:27;;;;;;;10.82;5.70;;;6.40;96.90;;;;;;5018051;28;20077;-87
2022/03/15 07:31:53;;;;;;;9.90;6.38;;;6.50;97.10;;;;;;4997702;28;20039;-85
2022/03/15 07:34:19;;;;;;;13.35;7.38;;;6.50;96.90;;;;;;4982409;28;20050;-85
2022/03/15 07:36:58;;;;;;;12.95;6.82;;;6.50;96.80;;;;;;4981555;28;20019;-87
2022/03/15 07:39:25;;;;;;;13.45;6.57;;;6.50;96.80;;;;;;4979240;28;20090;-85
2022/03/15 07:41:51;;;;;;;9.95;6.10;;;6.40;96.80;;;;;;4989368;28;20006;-86
2022/03/15 07:44:17;;;;;;;11.15;6.38;;;6.50;96.90;;;;;;4999794;28;20038;-85
2022/03/15 07:46:48;;;;;;;12.98;7.10;;;6.50;96.90;;;;;;4994332;28;20034;-87
2022/03/15 07:49:16;;;;;;;11.45;6.65;;;6.60;96.90;;;;;;4996885;28;20026;-87
2022/03/15 07:51:41;;;;;;;12.57;6.13;;;6.60;97.10;;;;;;4988214;28;20041;-86
2022/03/15 07:54:07;;;;;;;9.70;6.38;;;6.60;96.80;;;;;;4976090;28;20054;-86
2022/03/15 07:56:33;;;;;;;11.45;6.50;;;6.60;96.90;;;;;;4988400;28;20030;-86
2022/03/15 07:58:58;;;;;;;13.43;6.75;;;6.60;96.90;;;;;;5008712;28;20033;-87
2022/03/15 08:01:24;;;;;;;13.00;6.90;;;6.60;97.00;;;;;;5002700;28;20022;-86
2022/03/15 08:03:49;;;;;;;13.73;6.13;;;6.70;97.00;;;;;;4988441;28;20068;-85
2022/03/15 08:06:15;;;;;;;8.52;6.18;;;6.70;97.00;;;;;;4993185;28;20058;-88
2022/03/15 08:08:42;;;;;;;10.85;6.30;;;6.80;96.90;;;;;;5000458;28;20350;-86
2022/03/15 08:11:08;;;;;;;11.88;6.90;;;6.90;96.90;;;;;;4994447;28;20041;-86
2022/03/15 08:13:36;;;;;;;9.57;6.35;;;7.00;96.90;;;;;;4983823;28;20027;-88
2022/03/15 08:16:03;;;;;;;11.30;6.30;;;7.00;96.80;;;;;;4998432;28;20026;-86
2022/03/15 08:18:29;;;;;;;8.35;5.43;;;7.20;96.90;;;;;;4997155;28;20043;-86
2022/03/15 08:20:57;;;;;;;11.52;6.75;;;7.30;96.80;;;;;;5000623;28;20093;-87
2022/03/15 08:23:32;;;;;;;12.02;5.95;;;7.40;96.70;;;;;;4991027;28;20026;-85
2022/03/15 08:25:58;;;;;;;14.48;6.18;;;7.50;96.60;;;;;;4987219;28;20041;-87
2022/03/15 08:28:25;;;;;;;10.95;6.05;;;7.60;96.60;;;;;;4987051;28;20026;-88
2022/03/15 08:30:54;;;;;;;13.50;5.80;;;7.60;96.50;;;;;;5010770;28;20042;-86
2022/03/15 08:33:21;;;;;;;13.48;5.85;;;7.80;96.60;;;;;;4989617;28;20050;-87
2022/03/15 08:35:47;;;;;;;11.88;5.82;;;7.90;96.50;;;;;;4977080;28;20031;-87
2022/03/15 08:38:13;;;;;;;8.38;5.22;;;8.00;96.30;;;;;;4990768;28;20103;-87
2022/03/15 08:40:38;;;;;;;8.00;5.07;;;8.20;96.20;;;;;;4990556;28;20086;-87
2022/03/15 08:43:04;;;;;;;12.82;5.25;;;8.20;96.20;;;;;;4989174;28;20027;-87
2022/03/15 08:45:30;;;;;;;14.93;5.78;;;8.30;96.10;;;;;;4987352;28;20090;-87
2022/03/15 08:47:56;;;;;;;21.58;5.97;;;8.40;96.10;;;;;;4984023;28;20023;-87
2022/03/15 08:50:22;;;;;;;13.05;5.53;;;8.50;96.10;;;;;;4985672;28;20121;-87
2022/03/15 08:52:48;;;;;;;11.57;5.75;;;8.50;96.10;;;;;;4986162;28;20054;-87
2022/03/15 08:55:14;;;;;;;9.90;5.50;;;8.70;96.10;;;;;;4994450;28;20022;-87
2022/03/15 08:57:40;;;;;;;12.50;5.65;;;8.80;96.00;;;;;;4994967;28;20042;-87
2022/03/15 09:00:08;;;;;;;9.32;5.75;;;9.00;95.80;;;;;;4989670;28;20037;-87
2022/03/15 09:02:34;;;;;;;10.98;4.90;;;9.10;95.70;;;;;;4989518;28;20018;-87
2022/03/15 09:05:00;;;;;;;7.75;4.90;;;9.20;95.30;;;;;;4993587;28;20030;-87
2022/03/15 09:07:27;;;;;;;9.10;5.15;;;9.40;95.10;;;;;;5013535;28;20488;-87
2022/03/15 09:09:53;;;;;;;9.52;5.47;;;9.50;95.00;;;;;;4996261;28;20033;-86
2022/03/15 09:12:20;;;;;;;11.70;5.25;;;9.60;94.90;;;;;;5012837;28;20026;-87
2022/03/15 09:14:46;;;;;;;14.73;6.53;;;9.60;94.50;;;;;;5013372;28;20042;-85
2022/03/15 09:17:12;;;;;;;7.03;4.60;;;9.60;94.30;;;;;;4995444;28;20511;-87
2022/03/15 09:19:42;;;;;;;31.50;17.23;;;9.70;94.30;;;;;;4997967;28;20026;-88
2022/03/15 09:22:08;;;;;;;13.52;6.32;;;9.80;94.50;;;;;;4996805;28;20051;-87
2022/03/15 09:24:37;;;;;;;9.55;5.50;;;9.90;94.20;;;;;;5002813;28;20456;-87
2022/03/15 09:27:04;;;;;;;12.80;5.40;;;10.10;93.90;;;;;;5012030;28;20043;-87
2022/03/15 09:29:30;;;;;;;9.55;5.28;;;10.20;93.60;;;;;;4998492;28;20034;-87
2022/03/15 09:31:56;;;;;;;10.60;5.70;;;10.30;93.30;;;;;;4992269;28;20077;-87
2022/03/15 09:34:26;;;;;;;7.18;4.95;;;10.40;93.20;;;;;;5010193;28;20022;-88
2022/03/15 09:36:52;;;;;;;8.00;5.35;;;10.50;93.00;;;;;;4993002;28;20027;-87
2022/03/15 09:39:21;;;;;;;9.18;5.18;;;10.50;92.90;;;;;;5010788;28;20026;-88
2022/03/15 09:41:56;;;;;;;7.32;4.97;;;10.50;92.70;;;;;;4994281;28;20026;-87
2022/03/15 09:44:30;;;;;;;8.63;5.38;;;10.50;92.40;;;;;;4993587;28;20033;-87
2022/03/15 09:47:22;;;;;;;11.55;5.50;;;10.60;92.10;;;;;;5011267;28;20046;-87
2022/03/15 09:49:49;;;;;;;11.15;5.65;;;10.50;91.90;;;;;;4982478;28;20062;-87
2022/03/15 09:52:15;;;;;;;9.23;4.93;;;10.50;91.90;;;;;;4973941;28;20054;-87
2022/03/15 09:54:42;;;;;;;8.65;5.05;;;10.60;91.90;;;;;;5001331;28;20030;-85
2022/03/15 09:57:07;;;;;;;9.32;4.65;;;10.60;91.80;;;;;;5010475;28;20076;-87
2022/03/15 09:59:33;;;;;;;6.68;3.95;;;10.70;91.70;;;;;;5012221;28;20025;-87
2022/03/15 10:01:59;;;;;;;8.55;4.65;;;10.80;91.40;;;;;;5012328;28;20030;-87
2022/03/15 10:04:26;;;;;;;9.73;4.40;;;10.80;91.20;;;;;;5028545;28;20037;-88
2022/03/15 10:06:54;;;;;;;7.78;4.63;;;10.90;91.20;;;;;;5012342;28;20085;-86
2022/03/15 10:09:21;;;;;;;8.75;4.93;;;10.80;91.20;;;;;;4989230;28;20114;-87
2022/03/15 10:11:50;;;;;;;7.05;4.30;;;10.90;91.20;;;;;;4976375;28;20441;-88
2022/03/15 10:14:18;;;;;;;8.32;4.50;;;10.90;90.90;;;;;;4958674;28;20022;-87
2022/03/15 10:16:45;;;;;;;7.15;4.45;;;10.90;90.80;;;;;;4967814;28;20026;-87
2022/03/15 10:19:13;;;;;;;6.93;4.43;;;10.80;90.80;;;;;;4978299;28;20042;-87
2022/03/15 10:21:51;;;;;;;7.15;4.32;;;10.80;91.10;;;;;;4974961;28;20031;-88
2022/03/15 10:24:22;;;;;;;7.70;4.32;;;10.80;90.90;;;;;;4978551;28;20456;-86
2022/03/15 10:26:52;;;;;;;8.85;3.92;;;10.80;90.60;;;;;;4975145;28;20030;-88
2022/03/15 10:29:20;;;;;;;16.52;8.27;;;10.70;90.60;;;;;;4980630;28;20029;-88
2022/03/15 10:31:46;;;;;;;5.28;3.97;;;10.70;90.70;;;;;;4981580;28;20038;-86
2022/03/15 10:34:15;;;;;;;7.57;4.07;;;10.70;90.70;;;;;;5010327;28;20015;-85
2022/03/15 10:36:56;;;;;;;5.43;3.90;;;10.70;90.70;;;;;;5006195;28;20023;-87
2022/03/15 10:39:22;;;;;;;8.82;4.35;;;10.70;90.80;;;;;;4971508;28;20035;-87
2022/03/15 10:41:57;;;;;;;10.68;4.50;;;10.80;90.70;;;;;;4987498;28;20045;-87
2022/03/15 10:44:28;;;;;;;9.13;4.63;;;10.80;90.60;;;;;;4993443;28;20033;-87
2022/03/15 10:47:06;;;;;;;8.82;4.47;;;10.80;90.70;;;;;;5011498;28;20212;-87
2022/03/15 10:49:56;;;;;;;7.78;4.68;;;10.80;90.70;;;;;;5008226;28;20061;-87
2022/03/15 10:52:40;;;;;;;10.18;4.25;;;10.90;90.70;;;;;;5000727;28;20035;-87
2022/03/15 10:55:35;;;;;;;5.40;4.05;;;10.90;90.50;;;;;;4987553;28;20057;-88
2022/03/15 10:58:05;;;;;;;8.63;4.22;;;11.00;90.50;;;;;;4999821;28;20041;-88
2022/03/15 11:00:41;;;;;;;8.25;4.35;;;11.00;90.30;;;;;;4975390;28;20065;-88
2022/03/15 11:03:10;;;;;;;7.25;4.20;;;11.10;90.30;;;;;;4982587;28;20023;-86
2022/03/15 11:05:43;;;;;;;5.88;4.00;;;11.20;90.20;;;;;;4997338;28;20496;-88
2022/03/15 11:08:22;;;;;;;6.85;4.53;;;11.20;90.30;;;;;;4984456;28;20442;-87
2022/03/15 11:10:56;;;;;;;9.00;4.30;;;11.20;90.10;;;;;;4976012;28;20041;-86
2022/03/15 11:13:29;;;;;;;10.75;4.40;;;11.30;89.90;;;;;;4985975;28;20050;-85
2022/03/15 11:15:59;;;;;;;5.57;4.00;;;11.30;89.80;;;;;;4967350;28;20027;-87
2022/03/15 11:18:30;;;;;;;5.82;3.78;;;11.30;89.90;;;;;;4974735;28;20045;-87
2022/03/15 11:21:04;;;;;;;6.78;3.50;;;11.30;89.80;;;;;;5001336;28;20023;-87
2022/03/15 11:23:34;;;;;;;5.97;3.53;;;11.30;89.80;;;;;;4987539;28;20556;-88
2022/03/15 11:26:05;;;;;;;6.07;2.33;;;11.40;89.90;;;;;;5007559;28;20038;-89
2022/03/15 11:28:39;;;;;;;5.03;2.35;;;11.40;90.00;;;;;;4999148;28;20019;-86
2022/03/15 11:31:53;;;;;;;5.22;2.55;;;11.40;90.20;;;;;;4983464;28;20019;-87
2022/03/15 11:34:24;;;;;;;4.20;2.00;;;11.50;90.10;;;;;;4980822;28;20038;-88
2022/03/15 11:36:59;;;;;;;6.53;3.05;;;11.50;90.20;;;;;;4989664;28;20026;-87
2022/03/15 11:39:32;;;;;;;6.32;2.85;;;11.50;90.30;;;;;;4980756;28;20110;-92
2022/03/15 11:42:02;;;;;;;4.38;2.13;;;11.50;90.50;;;;;;4978976;28;20097;-87
2022/03/15 11:44:47;;;;;;;5.00;1.98;;;11.50;90.50;;;;;;4995508;28;20038;-85
2022/03/15 11:47:42;;;;;;;3.28;1.77;;;11.50;90.40;;;;;;4977242;28;20034;-86
2022/03/15 11:50:28;;;;;;;3.72;1.95;;;11.40;90.50;;;;;;4967402;28;20041;-85
2022/03/15 11:53:18;;;;;;;2.15;1.65;;;11.40;90.50;;;;;;4977141;28;20022;-85
2022/03/15 11:55:51;;;;;;;3.38;1.85;;;11.40;90.70;;;;;;4988703;28;20072;-86
2022/03/15 11:58:27;;;;;;;4.22;2.17;;;11.40;90.80;;;;;;5013752;28;20018;-85
2022/03/15 12:01:19;;;;;;;;;;;;;;;;;;;;;
2022/03/15 12:04:14;;;;;;;4.47;2.17;;;11.40;90.80;;;;;;4995295;28;20034;-87
2022/03/15 12:07:05;;;;;;;4.10;2.22;;;11.50;90.80;;;;;;4992629;28;20113;-87
2022/03/15 12:09:34;;;;;;;3.50;2.42;;;11.60;90.70;;;;;;4976394;28;20030;-86
2022/03/15 12:12:09;;;;;;;5.32;2.63;;;11.60;90.50;;;;;;4956821;28;20512;-86
2022/03/15 12:14:52;;;;;;;6.88;2.28;;;11.70;90.50;;;;;;4967043;28;20030;-86
2022/03/15 12:17:33;;;;;;;5.38;2.63;;;11.70;90.50;;;;;;4957450;28;20110;-86
2022/03/15 12:20:15;;;;;;;5.57;2.63;;;11.80;90.40;;;;;;4941913;28;20039;-86
2022/03/15 12:23:07;;;;;;;6.10;2.25;;;11.70;90.10;;;;;;4974134;28;20030;-87
2022/03/15 12:25:54;;;;;;;3.33;2.43;;;11.70;90.20;;;;;;4990523;28;20076;-86
2022/03/15 12:28:33;;;;;;;4.00;2.28;;;11.70;90.20;;;;;;4988146;28;20321;-86
2022/03/15 12:31:10;;;;;;;3.30;2.03;;;11.80;90.30;;;;;;4978576;28;20058;-87
2022/03/15 12:33:41;;;;;;;3.70;2.38;;;11.70;90.30;;;;;;4963383;28;20035;-88
2022/03/15 12:36:11;;;;;;;4.75;2.30;;;11.80;90.40;;;;;;4979523;28;20505;-88
2022/03/15 12:38:40;;;;;;;3.20;2.05;;;11.70;90.50;;;;;;4980377;28;20033;-86
2022/03/15 12:41:06;;;;;;;3.55;2.00;;;11.70;90.60;;;;;;4983121;28;20492;-87
2022/03/15 12:43:33;;;;;;;3.50;2.00;;;11.70;90.60;;;;;;4983314;28;20045;-87
2022/03/15 12:46:06;;;;;;;4.63;1.95;;;11.70;90.70;;;;;;4982572;28;20030;-87
2022/03/15 12:48:53;;;;;;;3.45;1.92;;;11.80;90.80;;;;;;4980217;28;20030;-86
2022/03/15 12:51:21;;;;;;;3.45;1.67;;;11.80;90.80;;;;;;4963917;28;20093;-88
2022/03/15 12:54:03;;;;;;;5.18;1.80;;;11.70;90.80;;;;;;4964691;28;20030;-86
2022/03/15 12:56:40;;;;;;;6.00;2.45;;;11.70;90.80;;;;;;4995017;28;20071;-87
2022/03/15 12:59:14;;;;;;;3.78;2.40;;;11.70;90.90;;;;;;4996069;28;20026;-86
2022/03/15 13:01:40;;;;;;;4.60;1.88;;;11.70;91.00;;;;;;4962936;28;20062;-85